sensor_id;sensor_type;location;lat;lon;timestamp;P1;durP1;ratioP1;P2;durP2;ratioP2
50337;SDS011;46221;51.178;5.900;2024-03-02T00:02:25;3.65;;;1.42;;
50337;SDS011;46221;51.178;5.900;2024-03-02T00:04:52;3.40;;;1.40;;
50337;SDS011;46221;51.178;5.900;2024-03-02T00:07:18;4.03;;;1.55;;
50337;SDS011;46221;51.178;5.900;2024-03-02T00:09:45;4.82;;;1.65;;
50337;SDS011;46221;51.178;5.900;2024-03-02T00:12:12;3.22;;;1.70;;
50337;SDS011;46221;51.178;5.900;2024-03-02T00:14:41;3.45;;;1.40;;
50337;SDS011;46221;51.178;5.900;2024-03-02T00:17:09;3.17;;;1.30;;
50337;SDS011;46221;51.178;5.900;2024-03-02T00:19:42;3.80;;;1.20;;
50337;SDS011;46221;51.178;5.900;2024-03-02T00:22:08;3.47;;;1.50;;
50337;SDS011;46221;51.178;5.900;2024-03-02T00:24:34;2.95;;;1.30;;
50337;SDS011;46221;51.178;5.900;2024-03-02T00:27:01;2.92;;;1.50;;
50337;SDS011;46221;51.178;5.900;2024-03-02T00:29:29;2.88;;;1.38;;
50337;SDS011;46221;51.178;5.900;2024-03-02T00:31:56;3.78;;;1.35;;
50337;SDS011;46221;51.178;5.900;2024-03-02T00:34:23;3.22;;;1.35;;
50337;SDS011;46221;51.178;5.900;2024-03-02T00:36:49;3.67;;;1.30;;
50337;SDS011;46221;51.178;5.900;2024-03-02T00:39:16;3.70;;;1.17;;
50337;SDS011;46221;51.178;5.900;2024-03-02T00:41:44;2.15;;;1.15;;
50337;SDS011;46221;51.178;5.900;2024-03-02T00:44:12;3.00;;;1.25;;
50337;SDS011;46221;51.178;5.900;2024-03-02T00:46:39;3.22;;;1.00;;
50337;SDS011;46221;51.178;5.900;2024-03-02T00:49:11;3.70;;;1.13;;
50337;SDS011;46221;51.178;5.900;2024-03-02T00:51:38;3.75;;;1.33;;
50337;SDS011;46221;51.178;5.900;2024-03-02T00:54:05;3.55;;;1.67;;
50337;SDS011;46221;51.178;5.900;2024-03-02T00:56:32;3.22;;;1.25;;
50337;SDS011;46221;51.178;5.900;2024-03-02T00:58:59;3.13;;;1.42;;
50337;SDS011;46221;51.178;5.900;2024-03-02T01:01:25;2.50;;;1.10;;
50337;SDS011;46221;51.178;5.900;2024-03-02T01:03:52;2.65;;;1.17;;
50337;SDS011;46221;51.178;5.900;2024-03-02T01:06:19;2.45;;;1.10;;
50337;SDS011;46221;51.178;5.900;2024-03-02T01:08:45;2.55;;;1.20;;
50337;SDS011;46221;51.178;5.900;2024-03-02T01:11:13;2.30;;;1.00;;
50337;SDS011;46221;51.178;5.900;2024-03-02T01:13:40;2.03;;;1.00;;
50337;SDS011;46221;51.178;5.900;2024-03-02T01:16:06;3.17;;;1.00;;
50337;SDS011;46221;51.178;5.900;2024-03-02T01:18:32;2.95;;;1.02;;
50337;SDS011;46221;51.178;5.900;2024-03-02T01:21:00;2.28;;;0.90;;
50337;SDS011;46221;51.178;5.900;2024-03-02T01:23:26;2.53;;;1.17;;
50337;SDS011;46221;51.178;5.900;2024-03-02T01:25:52;2.58;;;0.95;;
50337;SDS011;46221;51.178;5.900;2024-03-02T01:28:19;1.98;;;0.82;;
50337;SDS011;46221;51.178;5.900;2024-03-02T01:30:47;2.05;;;0.95;;
50337;SDS011;46221;51.178;5.900;2024-03-02T01:33:13;1.50;;;0.70;;
50337;SDS011;46221;51.178;5.900;2024-03-02T01:35:40;2.25;;;0.85;;
50337;SDS011;46221;51.178;5.900;2024-03-02T01:38:06;1.67;;;0.77;;
50337;SDS011;46221;51.178;5.900;2024-03-02T01:40:33;2.85;;;0.80;;
50337;SDS011;46221;51.178;5.900;2024-03-02T01:43:00;3.03;;;0.80;;
50337;SDS011;46221;51.178;5.900;2024-03-02T01:45:27;2.72;;;0.98;;
50337;SDS011;46221;51.178;5.900;2024-03-02T01:47:53;3.10;;;0.90;;
50337;SDS011;46221;51.178;5.900;2024-03-02T01:50:26;3.03;;;1.10;;
50337;SDS011;46221;51.178;5.900;2024-03-02T01:52:53;1.92;;;0.73;;
50337;SDS011;46221;51.178;5.900;2024-03-02T01:55:19;2.00;;;1.00;;
50337;SDS011;46221;51.178;5.900;2024-03-02T01:57:46;1.90;;;0.90;;
50337;SDS011;46221;51.178;5.900;2024-03-02T02:00:14;2.33;;;1.05;;
50337;SDS011;46221;51.178;5.900;2024-03-02T02:02:41;1.80;;;0.90;;
50337;SDS011;46221;51.178;5.900;2024-03-02T02:05:07;3.22;;;0.90;;
50337;SDS011;46221;51.178;5.900;2024-03-02T02:07:34;1.35;;;0.60;;
50337;SDS011;46221;51.178;5.900;2024-03-02T02:10:01;2.20;;;0.90;;
50337;SDS011;46221;51.178;5.900;2024-03-02T02:12:27;3.10;;;0.88;;
50337;SDS011;46221;51.178;5.900;2024-03-02T02:14:54;2.03;;;0.82;;
50337;SDS011;46221;51.178;5.900;2024-03-02T02:17:20;2.08;;;0.75;;
50337;SDS011;46221;51.178;5.900;2024-03-02T02:19:47;3.70;;;0.73;;
50337;SDS011;46221;51.178;5.900;2024-03-02T02:22:13;1.83;;;0.70;;
50337;SDS011;46221;51.178;5.900;2024-03-02T02:24:43;1.85;;;0.70;;
50337;SDS011;46221;51.178;5.900;2024-03-02T02:27:09;1.75;;;0.80;;
50337;SDS011;46221;51.178;5.900;2024-03-02T02:29:36;2.17;;;0.95;;
50337;SDS011;46221;51.178;5.900;2024-03-02T02:32:02;2.97;;;0.90;;
50337;SDS011;46221;51.178;5.900;2024-03-02T02:34:31;1.52;;;0.75;;
50337;SDS011;46221;51.178;5.900;2024-03-02T02:36:58;1.35;;;0.50;;
50337;SDS011;46221;51.178;5.900;2024-03-02T02:39:24;2.35;;;0.77;;
50337;SDS011;46221;51.178;5.900;2024-03-02T02:41:51;1.65;;;0.77;;
50337;SDS011;46221;51.178;5.900;2024-03-02T02:44:17;2.22;;;0.70;;
50337;SDS011;46221;51.178;5.900;2024-03-02T02:46:43;1.92;;;0.63;;
50337;SDS011;46221;51.178;5.900;2024-03-02T02:49:10;1.98;;;0.68;;
50337;SDS011;46221;51.178;5.900;2024-03-02T02:51:36;1.48;;;0.70;;
50337;SDS011;46221;51.178;5.900;2024-03-02T02:54:03;1.65;;;0.57;;
50337;SDS011;46221;51.178;5.900;2024-03-02T02:56:29;1.48;;;0.70;;
50337;SDS011;46221;51.178;5.900;2024-03-02T02:58:56;1.42;;;0.60;;
50337;SDS011;46221;51.178;5.900;2024-03-02T03:01:22;1.77;;;0.52;;
50337;SDS011;46221;51.178;5.900;2024-03-02T03:03:49;1.83;;;0.73;;
50337;SDS011;46221;51.178;5.900;2024-03-02T03:06:16;1.25;;;0.60;;
50337;SDS011;46221;51.178;5.900;2024-03-02T03:08:42;2.10;;;0.60;;
50337;SDS011;46221;51.178;5.900;2024-03-02T03:11:08;1.23;;;0.60;;
50337;SDS011;46221;51.178;5.900;2024-03-02T03:13:35;1.75;;;0.70;;
50337;SDS011;46221;51.178;5.900;2024-03-02T03:16:01;1.13;;;0.45;;
50337;SDS011;46221;51.178;5.900;2024-03-02T03:18:28;2.70;;;0.85;;
50337;SDS011;46221;51.178;5.900;2024-03-02T03:20:54;1.80;;;0.70;;
50337;SDS011;46221;51.178;5.900;2024-03-02T03:23:21;1.38;;;0.60;;
50337;SDS011;46221;51.178;5.900;2024-03-02T03:25:47;1.00;;;0.43;;
50337;SDS011;46221;51.178;5.900;2024-03-02T03:28:13;1.85;;;0.80;;
50337;SDS011;46221;51.178;5.900;2024-03-02T03:30:40;1.08;;;0.40;;
50337;SDS011;46221;51.178;5.900;2024-03-02T03:33:06;1.42;;;0.65;;
50337;SDS011;46221;51.178;5.900;2024-03-02T03:35:33;2.00;;;0.68;;
50337;SDS011;46221;51.178;5.900;2024-03-02T03:37:59;1.90;;;0.60;;
50337;SDS011;46221;51.178;5.900;2024-03-02T03:40:26;1.60;;;0.60;;
50337;SDS011;46221;51.178;5.900;2024-03-02T03:42:52;1.83;;;0.80;;
50337;SDS011;46221;51.178;5.900;2024-03-02T03:45:19;1.60;;;0.50;;
50337;SDS011;46221;51.178;5.900;2024-03-02T03:47:46;2.00;;;0.47;;
50337;SDS011;46221;51.178;5.900;2024-03-02T03:50:12;1.33;;;0.60;;
50337;SDS011;46221;51.178;5.900;2024-03-02T03:52:39;2.03;;;0.63;;
50337;SDS011;46221;51.178;5.900;2024-03-02T03:55:05;1.05;;;0.50;;
50337;SDS011;46221;51.178;5.900;2024-03-02T03:57:32;1.88;;;0.57;;
50337;SDS011;46221;51.178;5.900;2024-03-02T03:59:59;1.48;;;0.70;;
50337;SDS011;46221;51.178;5.900;2024-03-02T04:02:26;1.27;;;0.57;;
50337;SDS011;46221;51.178;5.900;2024-03-02T04:04:53;2.72;;;0.50;;
50337;SDS011;46221;51.178;5.900;2024-03-02T04:07:19;1.70;;;0.52;;
50337;SDS011;46221;51.178;5.900;2024-03-02T04:09:45;2.42;;;0.70;;
50337;SDS011;46221;51.178;5.900;2024-03-02T04:12:12;1.15;;;0.50;;
50337;SDS011;46221;51.178;5.900;2024-03-02T04:14:39;1.10;;;0.50;;
50337;SDS011;46221;51.178;5.900;2024-03-02T04:17:08;1.20;;;0.60;;
50337;SDS011;46221;51.178;5.900;2024-03-02T04:19:34;1.83;;;0.60;;
50337;SDS011;46221;51.178;5.900;2024-03-02T04:22:01;1.10;;;0.50;;
50337;SDS011;46221;51.178;5.900;2024-03-02T04:24:40;1.20;;;0.50;;
50337;SDS011;46221;51.178;5.900;2024-03-02T04:27:07;1.40;;;0.60;;
50337;SDS011;46221;51.178;5.900;2024-03-02T04:29:33;1.80;;;0.40;;
50337;SDS011;46221;51.178;5.900;2024-03-02T04:31:59;0.85;;;0.60;;
50337;SDS011;46221;51.178;5.900;2024-03-02T04:34:26;0.98;;;0.40;;
50337;SDS011;46221;51.178;5.900;2024-03-02T04:36:52;1.75;;;0.60;;
50337;SDS011;46221;51.178;5.900;2024-03-02T04:39:19;1.10;;;0.40;;
50337;SDS011;46221;51.178;5.900;2024-03-02T04:41:45;1.95;;;0.60;;
50337;SDS011;46221;51.178;5.900;2024-03-02T04:44:11;1.27;;;0.43;;
50337;SDS011;46221;51.178;5.900;2024-03-02T04:46:38;1.23;;;0.50;;
50337;SDS011;46221;51.178;5.900;2024-03-02T04:49:04;1.70;;;0.50;;
50337;SDS011;46221;51.178;5.900;2024-03-02T04:51:31;1.58;;;0.45;;
50337;SDS011;46221;51.178;5.900;2024-03-02T04:53:57;0.68;;;0.30;;
50337;SDS011;46221;51.178;5.900;2024-03-02T04:56:23;1.55;;;0.60;;
50337;SDS011;46221;51.178;5.900;2024-03-02T04:59:13;1.10;;;0.40;;
50337;SDS011;46221;51.178;5.900;2024-03-02T05:01:39;1.73;;;0.98;;
50337;SDS011;46221;51.178;5.900;2024-03-02T05:04:08;1.30;;;0.40;;
50337;SDS011;46221;51.178;5.900;2024-03-02T05:06:40;2.20;;;0.45;;
50337;SDS011;46221;51.178;5.900;2024-03-02T05:09:07;0.90;;;0.43;;
50337;SDS011;46221;51.178;5.900;2024-03-02T05:11:34;1.00;;;0.50;;
50337;SDS011;46221;51.178;5.900;2024-03-02T05:14:04;1.20;;;0.47;;
50337;SDS011;46221;51.178;5.900;2024-03-02T05:16:34;1.33;;;0.50;;
50337;SDS011;46221;51.178;5.900;2024-03-02T05:19:00;1.23;;;0.40;;
50337;SDS011;46221;51.178;5.900;2024-03-02T05:21:27;1.27;;;0.45;;
50337;SDS011;46221;51.178;5.900;2024-03-02T05:23:53;2.25;;;0.40;;
50337;SDS011;46221;51.178;5.900;2024-03-02T05:26:20;0.70;;;0.30;;
50337;SDS011;46221;51.178;5.900;2024-03-02T05:28:46;0.90;;;0.50;;
50337;SDS011;46221;51.178;5.900;2024-03-02T05:31:14;0.60;;;0.30;;
50337;SDS011;46221;51.178;5.900;2024-03-02T05:33:41;0.60;;;0.32;;
50337;SDS011;46221;51.178;5.900;2024-03-02T05:36:10;1.33;;;0.30;;
50337;SDS011;46221;51.178;5.900;2024-03-02T05:38:37;1.35;;;0.50;;
50337;SDS011;46221;51.178;5.900;2024-03-02T05:41:03;2.00;;;0.40;;
50337;SDS011;46221;51.178;5.900;2024-03-02T05:43:30;0.73;;;0.35;;
50337;SDS011;46221;51.178;5.900;2024-03-02T05:45:56;1.77;;;0.63;;
50337;SDS011;46221;51.178;5.900;2024-03-02T05:48:22;2.00;;;0.60;;
50337;SDS011;46221;51.178;5.900;2024-03-02T05:50:49;1.10;;;0.57;;
50337;SDS011;46221;51.178;5.900;2024-03-02T05:53:15;1.48;;;0.40;;
50337;SDS011;46221;51.178;5.900;2024-03-02T05:55:41;1.15;;;0.50;;
50337;SDS011;46221;51.178;5.900;2024-03-02T05:58:08;1.50;;;0.60;;
50337;SDS011;46221;51.178;5.900;2024-03-02T06:00:53;2.13;;;0.50;;
50337;SDS011;46221;51.178;5.900;2024-03-02T06:03:21;1.55;;;0.40;;
50337;SDS011;46221;51.178;5.900;2024-03-02T06:05:47;0.98;;;0.50;;
50337;SDS011;46221;51.178;5.900;2024-03-02T06:08:15;1.08;;;0.45;;
50337;SDS011;46221;51.178;5.900;2024-03-02T06:10:41;1.55;;;0.47;;
50337;SDS011;46221;51.178;5.900;2024-03-02T06:13:08;1.58;;;0.65;;
50337;SDS011;46221;51.178;5.900;2024-03-02T06:15:34;0.70;;;0.40;;
50337;SDS011;46221;51.178;5.900;2024-03-02T06:18:02;1.05;;;0.43;;
50337;SDS011;46221;51.178;5.900;2024-03-02T06:20:29;0.70;;;0.55;;
50337;SDS011;46221;51.178;5.900;2024-03-02T06:23:01;1.65;;;0.60;;
50337;SDS011;46221;51.178;5.900;2024-03-02T06:25:28;0.98;;;0.22;;
50337;SDS011;46221;51.178;5.900;2024-03-02T06:27:54;0.77;;;0.30;;
50337;SDS011;46221;51.178;5.900;2024-03-02T06:30:21;1.23;;;0.40;;
50337;SDS011;46221;51.178;5.900;2024-03-02T06:32:47;1.40;;;0.40;;
50337;SDS011;46221;51.178;5.900;2024-03-02T06:35:17;1.20;;;0.40;;
50337;SDS011;46221;51.178;5.900;2024-03-02T06:37:46;1.33;;;0.40;;
50337;SDS011;46221;51.178;5.900;2024-03-02T06:40:13;1.08;;;0.30;;
50337;SDS011;46221;51.178;5.900;2024-03-02T06:42:40;0.98;;;0.30;;
50337;SDS011;46221;51.178;5.900;2024-03-02T06:45:06;0.85;;;0.30;;
50337;SDS011;46221;51.178;5.900;2024-03-02T06:47:33;1.10;;;0.40;;
50337;SDS011;46221;51.178;5.900;2024-03-02T06:50:01;0.50;;;0.25;;
50337;SDS011;46221;51.178;5.900;2024-03-02T06:52:28;0.75;;;0.40;;
50337;SDS011;46221;51.178;5.900;2024-03-02T06:55:00;0.82;;;0.50;;
50337;SDS011;46221;51.178;5.900;2024-03-02T06:57:26;1.35;;;0.55;;
50337;SDS011;46221;51.178;5.900;2024-03-02T06:59:53;0.80;;;0.30;;
50337;SDS011;46221;51.178;5.900;2024-03-02T07:02:26;1.23;;;0.40;;
50337;SDS011;46221;51.178;5.900;2024-03-02T07:04:54;2.28;;;0.50;;
50337;SDS011;46221;51.178;5.900;2024-03-02T07:07:20;2.00;;;0.40;;
50337;SDS011;46221;51.178;5.900;2024-03-02T07:09:47;1.45;;;0.35;;
50337;SDS011;46221;51.178;5.900;2024-03-02T07:12:14;1.70;;;0.43;;
50337;SDS011;46221;51.178;5.900;2024-03-02T07:14:40;1.77;;;0.50;;
50337;SDS011;46221;51.178;5.900;2024-03-02T07:17:25;1.40;;;0.50;;
50337;SDS011;46221;51.178;5.900;2024-03-02T07:19:52;1.45;;;0.50;;
50337;SDS011;46221;51.178;5.900;2024-03-02T07:22:18;1.38;;;0.32;;
50337;SDS011;46221;51.178;5.900;2024-03-02T07:24:45;1.27;;;0.40;;
50337;SDS011;46221;51.178;5.900;2024-03-02T07:27:16;0.85;;;0.40;;
50337;SDS011;46221;51.178;5.900;2024-03-02T07:29:45;3.25;;;0.40;;
50337;SDS011;46221;51.178;5.900;2024-03-02T07:32:11;1.17;;;0.40;;
50337;SDS011;46221;51.178;5.900;2024-03-02T07:34:38;0.75;;;0.40;;
50337;SDS011;46221;51.178;5.900;2024-03-02T07:37:05;2.08;;;0.80;;
50337;SDS011;46221;51.178;5.900;2024-03-02T07:39:32;2.33;;;0.40;;
50337;SDS011;46221;51.178;5.900;2024-03-02T07:41:59;1.30;;;0.40;;
50337;SDS011;46221;51.178;5.900;2024-03-02T07:44:26;1.98;;;0.70;;
50337;SDS011;46221;51.178;5.900;2024-03-02T07:46:53;0.73;;;0.20;;
50337;SDS011;46221;51.178;5.900;2024-03-02T07:49:20;1.40;;;0.40;;
50337;SDS011;46221;51.178;5.900;2024-03-02T07:51:47;1.08;;;0.50;;
50337;SDS011;46221;51.178;5.900;2024-03-02T07:54:13;1.38;;;0.32;;
50337;SDS011;46221;51.178;5.900;2024-03-02T07:56:40;3.00;;;0.50;;
50337;SDS011;46221;51.178;5.900;2024-03-02T07:59:06;2.35;;;0.50;;
50337;SDS011;46221;51.178;5.900;2024-03-02T08:01:33;1.75;;;0.45;;
50337;SDS011;46221;51.178;5.900;2024-03-02T08:04:01;1.75;;;0.50;;
50337;SDS011;46221;51.178;5.900;2024-03-02T08:06:29;10.40;;;0.80;;
50337;SDS011;46221;51.178;5.900;2024-03-02T08:08:56;1.75;;;0.63;;
50337;SDS011;46221;51.178;5.900;2024-03-02T08:11:23;1.55;;;0.35;;
50337;SDS011;46221;51.178;5.900;2024-03-02T08:13:51;4.57;;;0.50;;
50337;SDS011;46221;51.178;5.900;2024-03-02T08:16:48;1.70;;;0.63;;
50337;SDS011;46221;51.178;5.900;2024-03-02T08:19:14;2.08;;;0.52;;
50337;SDS011;46221;51.178;5.900;2024-03-02T08:21:42;3.70;;;0.60;;
50337;SDS011;46221;51.178;5.900;2024-03-02T08:24:08;2.42;;;0.40;;
50337;SDS011;46221;51.178;5.900;2024-03-02T08:26:35;2.63;;;0.63;;
50337;SDS011;46221;51.178;5.900;2024-03-02T08:29:02;2.45;;;0.68;;
50337;SDS011;46221;51.178;5.900;2024-03-02T08:31:30;2.65;;;0.52;;
50337;SDS011;46221;51.178;5.900;2024-03-02T08:33:56;2.92;;;0.70;;
50337;SDS011;46221;51.178;5.900;2024-03-02T08:36:26;2.70;;;0.50;;
50337;SDS011;46221;51.178;5.900;2024-03-02T08:38:53;6.10;;;1.05;;
50337;SDS011;46221;51.178;5.900;2024-03-02T08:41:20;2.25;;;0.60;;
50337;SDS011;46221;51.178;5.900;2024-03-02T08:43:46;1.88;;;0.60;;
50337;SDS011;46221;51.178;5.900;2024-03-02T08:46:12;4.65;;;0.85;;
50337;SDS011;46221;51.178;5.900;2024-03-02T08:48:39;2.47;;;0.60;;
50337;SDS011;46221;51.178;5.900;2024-03-02T08:51:05;3.72;;;0.77;;
50337;SDS011;46221;51.178;5.900;2024-03-02T08:53:34;2.92;;;0.57;;
50337;SDS011;46221;51.178;5.900;2024-03-02T08:56:00;5.43;;;1.15;;
50337;SDS011;46221;51.178;5.900;2024-03-02T08:58:28;3.97;;;0.70;;
50337;SDS011;46221;51.178;5.900;2024-03-02T09:00:54;2.28;;;0.57;;
50337;SDS011;46221;51.178;5.900;2024-03-02T09:03:21;3.53;;;0.63;;
50337;SDS011;46221;51.178;5.900;2024-03-02T09:05:48;2.70;;;0.50;;
50337;SDS011;46221;51.178;5.900;2024-03-02T09:08:14;4.28;;;0.70;;
50337;SDS011;46221;51.178;5.900;2024-03-02T09:10:41;1.45;;;0.40;;
50337;SDS011;46221;51.178;5.900;2024-03-02T09:13:07;2.72;;;0.47;;
50337;SDS011;46221;51.178;5.900;2024-03-02T09:15:33;2.60;;;0.50;;
50337;SDS011;46221;51.178;5.900;2024-03-02T09:18:04;2.78;;;0.50;;
50337;SDS011;46221;51.178;5.900;2024-03-02T09:20:30;2.85;;;0.93;;
50337;SDS011;46221;51.178;5.900;2024-03-02T09:22:56;1.98;;;0.60;;
50337;SDS011;46221;51.178;5.900;2024-03-02T09:25:23;1.70;;;0.60;;
50337;SDS011;46221;51.178;5.900;2024-03-02T09:27:49;2.38;;;0.80;;
50337;SDS011;46221;51.178;5.900;2024-03-02T09:30:16;1.27;;;0.60;;
50337;SDS011;46221;51.178;5.900;2024-03-02T09:32:42;0.77;;;0.30;;
50337;SDS011;46221;51.178;5.900;2024-03-02T09:35:10;3.45;;;0.65;;
50337;SDS011;46221;51.178;5.900;2024-03-02T09:37:36;3.30;;;0.50;;
50337;SDS011;46221;51.178;5.900;2024-03-02T09:40:04;3.28;;;0.60;;
50337;SDS011;46221;51.178;5.900;2024-03-02T09:42:30;1.98;;;0.60;;
50337;SDS011;46221;51.178;5.900;2024-03-02T09:44:58;3.28;;;0.57;;
50337;SDS011;46221;51.178;5.900;2024-03-02T09:47:24;2.70;;;0.60;;
50337;SDS011;46221;51.178;5.900;2024-03-02T09:49:51;1.38;;;0.40;;
50337;SDS011;46221;51.178;5.900;2024-03-02T09:52:18;2.67;;;0.68;;
50337;SDS011;46221;51.178;5.900;2024-03-02T09:54:44;2.60;;;0.50;;
50337;SDS011;46221;51.178;5.900;2024-03-02T09:57:11;1.70;;;0.47;;
50337;SDS011;46221;51.178;5.900;2024-03-02T09:59:37;2.63;;;0.65;;
50337;SDS011;46221;51.178;5.900;2024-03-02T10:02:03;3.33;;;0.63;;
50337;SDS011;46221;51.178;5.900;2024-03-02T10:04:30;2.17;;;0.60;;
50337;SDS011;46221;51.178;5.900;2024-03-02T10:07:13;1.27;;;0.45;;
50337;SDS011;46221;51.178;5.900;2024-03-02T10:09:40;2.50;;;0.50;;
50337;SDS011;46221;51.178;5.900;2024-03-02T10:12:08;2.83;;;0.60;;
50337;SDS011;46221;51.178;5.900;2024-03-02T10:14:35;2.42;;;0.80;;
50337;SDS011;46221;51.178;5.900;2024-03-02T10:17:02;2.00;;;0.52;;
50337;SDS011;46221;51.178;5.900;2024-03-02T10:19:29;4.30;;;0.90;;
50337;SDS011;46221;51.178;5.900;2024-03-02T10:21:59;0.88;;;0.30;;
50337;SDS011;46221;51.178;5.900;2024-03-02T10:24:36;2.67;;;0.63;;
50337;SDS011;46221;51.178;5.900;2024-03-02T10:27:10;2.55;;;0.70;;
50337;SDS011;46221;51.178;5.900;2024-03-02T10:29:40;1.70;;;0.43;;
50337;SDS011;46221;51.178;5.900;2024-03-02T10:32:10;1.80;;;0.57;;
50337;SDS011;46221;51.178;5.900;2024-03-02T10:34:39;3.35;;;0.65;;
50337;SDS011;46221;51.178;5.900;2024-03-02T10:37:06;3.20;;;0.98;;
50337;SDS011;46221;51.178;5.900;2024-03-02T10:39:36;1.73;;;0.60;;
50337;SDS011;46221;51.178;5.900;2024-03-02T10:42:06;1.13;;;0.50;;
50337;SDS011;46221;51.178;5.900;2024-03-02T10:44:33;3.13;;;0.65;;
50337;SDS011;46221;51.178;5.900;2024-03-02T10:47:02;2.28;;;0.63;;
50337;SDS011;46221;51.178;5.900;2024-03-02T10:49:32;1.98;;;0.40;;
50337;SDS011;46221;51.178;5.900;2024-03-02T10:51:59;3.60;;;0.70;;
50337;SDS011;46221;51.178;5.900;2024-03-02T10:54:26;2.42;;;0.90;;
50337;SDS011;46221;51.178;5.900;2024-03-02T10:56:54;1.85;;;0.70;;
50337;SDS011;46221;51.178;5.900;2024-03-02T10:59:24;5.25;;;0.70;;
50337;SDS011;46221;51.178;5.900;2024-03-02T11:01:59;4.18;;;0.47;;
50337;SDS011;46221;51.178;5.900;2024-03-02T11:04:31;2.03;;;0.60;;
50337;SDS011;46221;51.178;5.900;2024-03-02T11:06:59;3.28;;;0.77;;
50337;SDS011;46221;51.178;5.900;2024-03-02T11:09:27;2.15;;;0.32;;
50337;SDS011;46221;51.178;5.900;2024-03-02T11:14:31;2.28;;;0.60;;
50337;SDS011;46221;51.178;5.900;2024-03-02T11:17:01;2.80;;;0.43;;
50337;SDS011;46221;51.178;5.900;2024-03-02T11:19:29;2.78;;;0.60;;
50337;SDS011;46221;51.178;5.900;2024-03-02T11:21:56;2.45;;;0.50;;
50337;SDS011;46221;51.178;5.900;2024-03-02T11:26:53;1.63;;;0.50;;
50337;SDS011;46221;51.178;5.900;2024-03-02T11:32:02;3.78;;;0.60;;
50337;SDS011;46221;51.178;5.900;2024-03-02T11:34:32;3.75;;;0.73;;
50337;SDS011;46221;51.178;5.900;2024-03-02T11:37:02;2.17;;;0.60;;
50337;SDS011;46221;51.178;5.900;2024-03-02T11:39:32;2.10;;;0.57;;
50337;SDS011;46221;51.178;5.900;2024-03-02T11:41:58;1.65;;;0.60;;
50337;SDS011;46221;51.178;5.900;2024-03-02T11:44:26;1.27;;;0.50;;
50337;SDS011;46221;51.178;5.900;2024-03-02T11:46:58;2.22;;;0.45;;
50337;SDS011;46221;51.178;5.900;2024-03-02T11:52:04;2.55;;;0.65;;
50337;SDS011;46221;51.178;5.900;2024-03-02T11:54:31;1.88;;;0.50;;
50337;SDS011;46221;51.178;5.900;2024-03-02T11:56:59;3.50;;;0.77;;
50337;SDS011;46221;51.178;5.900;2024-03-02T11:59:31;3.50;;;0.70;;
50337;SDS011;46221;51.178;5.900;2024-03-02T12:01:58;2.35;;;0.60;;
50337;SDS011;46221;51.178;5.900;2024-03-02T12:04:25;2.17;;;0.55;;
50337;SDS011;46221;51.178;5.900;2024-03-02T12:06:56;2.28;;;0.80;;
50337;SDS011;46221;51.178;5.900;2024-03-02T12:09:29;2.92;;;0.55;;
50337;SDS011;46221;51.178;5.900;2024-03-02T12:14:30;2.50;;;0.80;;
50337;SDS011;46221;51.178;5.900;2024-03-02T12:16:56;2.22;;;0.60;;
50337;SDS011;46221;51.178;5.900;2024-03-02T12:19:25;3.03;;;0.60;;
50337;SDS011;46221;51.178;5.900;2024-03-02T12:21:53;3.13;;;0.52;;
50337;SDS011;46221;51.178;5.900;2024-03-02T12:24:20;1.95;;;0.50;;
50337;SDS011;46221;51.178;5.900;2024-03-02T12:26:47;3.17;;;1.10;;
50337;SDS011;46221;51.178;5.900;2024-03-02T12:29:14;2.47;;;0.73;;
50337;SDS011;46221;51.178;5.900;2024-03-02T12:31:48;2.88;;;0.68;;
50337;SDS011;46221;51.178;5.900;2024-03-02T12:34:15;2.85;;;0.70;;
50337;SDS011;46221;51.178;5.900;2024-03-02T12:36:41;3.08;;;0.80;;
50337;SDS011;46221;51.178;5.900;2024-03-02T12:39:08;1.95;;;0.60;;
50337;SDS011;46221;51.178;5.900;2024-03-02T12:41:36;4.40;;;0.80;;
50337;SDS011;46221;51.178;5.900;2024-03-02T12:44:04;2.58;;;0.65;;
50337;SDS011;46221;51.178;5.900;2024-03-02T12:46:34;1.85;;;0.47;;
50337;SDS011;46221;51.178;5.900;2024-03-02T12:49:07;1.38;;;0.52;;
50337;SDS011;46221;51.178;5.900;2024-03-02T12:51:34;2.72;;;0.52;;
50337;SDS011;46221;51.178;5.900;2024-03-02T12:54:01;1.80;;;0.55;;
50337;SDS011;46221;51.178;5.900;2024-03-02T12:56:28;2.50;;;0.68;;
50337;SDS011;46221;51.178;5.900;2024-03-02T12:58:55;3.05;;;0.50;;
50337;SDS011;46221;51.178;5.900;2024-03-02T13:01:22;1.95;;;0.50;;
50337;SDS011;46221;51.178;5.900;2024-03-02T13:03:49;2.58;;;0.50;;
50337;SDS011;46221;51.178;5.900;2024-03-02T13:06:17;4.88;;;0.68;;
50337;SDS011;46221;51.178;5.900;2024-03-02T13:08:44;1.75;;;0.50;;
50337;SDS011;46221;51.178;5.900;2024-03-02T13:11:11;2.80;;;0.52;;
50337;SDS011;46221;51.178;5.900;2024-03-02T13:13:38;2.05;;;0.60;;
50337;SDS011;46221;51.178;5.900;2024-03-02T13:16:11;2.25;;;0.70;;
50337;SDS011;46221;51.178;5.900;2024-03-02T13:18:38;2.28;;;0.60;;
50337;SDS011;46221;51.178;5.900;2024-03-02T13:21:05;2.15;;;0.60;;
50337;SDS011;46221;51.178;5.900;2024-03-02T13:23:32;2.22;;;0.55;;
50337;SDS011;46221;51.178;5.900;2024-03-02T13:25:58;1.63;;;0.57;;
50337;SDS011;46221;51.178;5.900;2024-03-02T13:28:25;1.90;;;0.60;;
50337;SDS011;46221;51.178;5.900;2024-03-02T13:30:52;1.25;;;0.57;;
50337;SDS011;46221;51.178;5.900;2024-03-02T13:33:18;2.15;;;0.63;;
50337;SDS011;46221;51.178;5.900;2024-03-02T13:35:54;3.38;;;0.60;;
50337;SDS011;46221;51.178;5.900;2024-03-02T13:38:20;2.42;;;0.63;;
50337;SDS011;46221;51.178;5.900;2024-03-02T13:40:48;3.17;;;0.75;;
50337;SDS011;46221;51.178;5.900;2024-03-02T13:43:17;2.50;;;0.70;;
50337;SDS011;46221;51.178;5.900;2024-03-02T13:45:45;3.67;;;0.60;;
50337;SDS011;46221;51.178;5.900;2024-03-02T13:48:11;2.20;;;0.57;;
50337;SDS011;46221;51.178;5.900;2024-03-02T13:50:38;1.65;;;0.70;;
50337;SDS011;46221;51.178;5.900;2024-03-02T13:53:05;2.30;;;0.68;;
50337;SDS011;46221;51.178;5.900;2024-03-02T13:55:33;1.67;;;0.60;;
50337;SDS011;46221;51.178;5.900;2024-03-02T13:58:00;2.45;;;0.63;;
50337;SDS011;46221;51.178;5.900;2024-03-02T14:00:26;3.17;;;0.50;;
50337;SDS011;46221;51.178;5.900;2024-03-02T14:02:53;4.07;;;0.60;;
50337;SDS011;46221;51.178;5.900;2024-03-02T14:05:20;1.33;;;0.50;;
50337;SDS011;46221;51.178;5.900;2024-03-02T14:07:47;2.33;;;0.50;;
50337;SDS011;46221;51.178;5.900;2024-03-02T14:10:14;2.22;;;0.70;;
50337;SDS011;46221;51.178;5.900;2024-03-02T14:12:41;1.95;;;0.60;;
50337;SDS011;46221;51.178;5.900;2024-03-02T14:15:08;2.65;;;0.57;;
50337;SDS011;46221;51.178;5.900;2024-03-02T14:17:35;4.22;;;0.50;;
50337;SDS011;46221;51.178;5.900;2024-03-02T14:20:02;3.80;;;0.77;;
50337;SDS011;46221;51.178;5.900;2024-03-02T14:22:31;2.85;;;0.82;;
50337;SDS011;46221;51.178;5.900;2024-03-02T14:24:58;3.63;;;0.60;;
50337;SDS011;46221;51.178;5.900;2024-03-02T14:27:26;2.17;;;0.30;;
50337;SDS011;46221;51.178;5.900;2024-03-02T14:30:13;1.00;;;0.50;;
50337;SDS011;46221;51.178;5.900;2024-03-02T14:32:41;2.08;;;0.60;;
50337;SDS011;46221;51.178;5.900;2024-03-02T14:35:09;1.45;;;0.50;;
50337;SDS011;46221;51.178;5.900;2024-03-02T14:37:37;1.42;;;0.47;;
50337;SDS011;46221;51.178;5.900;2024-03-02T14:40:04;1.27;;;0.52;;
50337;SDS011;46221;51.178;5.900;2024-03-02T14:42:32;1.50;;;0.57;;
50337;SDS011;46221;51.178;5.900;2024-03-02T14:44:59;2.45;;;0.52;;
50337;SDS011;46221;51.178;5.900;2024-03-02T14:47:25;2.30;;;0.60;;
50337;SDS011;46221;51.178;5.900;2024-03-02T14:49:52;1.40;;;0.50;;
50337;SDS011;46221;51.178;5.900;2024-03-02T14:52:19;2.00;;;0.32;;
50337;SDS011;46221;51.178;5.900;2024-03-02T14:54:45;2.75;;;0.60;;
50337;SDS011;46221;51.178;5.900;2024-03-02T14:57:12;1.20;;;0.45;;
50337;SDS011;46221;51.178;5.900;2024-03-02T14:59:39;1.70;;;0.60;;
50337;SDS011;46221;51.178;5.900;2024-03-02T15:02:07;1.58;;;0.60;;
50337;SDS011;46221;51.178;5.900;2024-03-02T15:04:33;2.17;;;0.70;;